createdAt,value
2023-03-26T00:04:42.326Z,3.10
2023-03-26T00:09:44.271Z,3.00
2023-03-26T00:14:46.234Z,3.00
2023-03-26T00:19:48.357Z,2.70
2023-03-26T00:24:50.897Z,2.30
2023-03-26T00:29:55.938Z,2.40
2023-03-26T00:34:57.871Z,2.90
2023-03-26T00:40:09.452Z,2.90
2023-03-26T00:45:11.560Z,2.60
2023-03-26T00:50:16.075Z,2.30
2023-03-26T00:55:17.922Z,2.70
2023-03-26T01:00:31.525Z,2.30
2023-03-26T01:05:36.199Z,3.00
2023-03-26T01:10:38.339Z,2.70
2023-03-26T01:15:41.523Z,3.10
2023-03-26T01:20:46.576Z,3.00
2023-03-26T01:25:58.651Z,2.20
2023-03-26T01:31:36.726Z,2.90
2023-03-26T01:36:53.071Z,2.40
2023-03-26T01:42:02.113Z,3.30
2023-03-26T01:47:05.950Z,2.80
2023-03-26T01:52:24.756Z,3.30
2023-03-26T01:57:34.049Z,3.20
2023-03-26T02:03:05.586Z,3.10
2023-03-26T02:08:16.232Z,3.00
2023-03-26T02:13:18.923Z,2.10
2023-03-26T02:18:23.738Z,2.70
2023-03-26T02:23:29.422Z,2.70
2023-03-26T02:28:32.549Z,3.00
2023-03-26T02:33:34.749Z,3.00
2023-03-26T02:38:36.681Z,4.00
2023-03-26T02:43:38.553Z,2.80
2023-03-26T02:48:41.191Z,3.50
2023-03-26T02:53:43.249Z,4.30
2023-03-26T02:58:46.538Z,2.50
2023-03-26T03:03:51.380Z,4.20
2023-03-26T03:08:53.719Z,3.80
2023-03-26T03:13:55.770Z,3.70
2023-03-26T03:18:58.396Z,3.30
2023-03-26T03:24:00.755Z,3.40
2023-03-26T03:29:03.152Z,3.80
2023-03-26T03:34:05.163Z,4.20
2023-03-26T03:39:08.249Z,3.60
2023-03-26T03:44:10.254Z,3.70
2023-03-26T03:49:12.261Z,4.70
2023-03-26T03:54:14.314Z,4.00
2023-03-26T03:59:17.181Z,4.40
2023-03-26T04:04:21.340Z,5.40
2023-03-26T04:09:23.503Z,4.90
2023-03-26T04:14:25.477Z,5.30
2023-03-26T04:19:27.602Z,4.60
2023-03-26T04:24:29.806Z,5.10
2023-03-26T04:29:42.479Z,4.90
2023-03-26T04:34:45.682Z,5.20
2023-03-26T04:39:47.643Z,3.70
2023-03-26T04:44:51.020Z,4.40
2023-03-26T04:49:53.063Z,4.30
2023-03-26T04:54:55.381Z,3.90
2023-03-26T04:59:57.494Z,4.60
2023-03-26T05:04:59.476Z,3.20
2023-03-26T05:10:03.298Z,2.70
2023-03-26T05:15:06.022Z,3.20
2023-03-26T05:20:20.951Z,5.00
2023-03-26T05:25:23.444Z,4.50
2023-03-26T05:30:25.569Z,4.80
2023-03-26T05:35:28.526Z,4.00
2023-03-26T05:40:30.589Z,4.20
2023-03-26T05:45:32.548Z,4.10
2023-03-26T05:50:34.694Z,4.00
2023-03-26T05:55:36.735Z,3.50
2023-03-26T06:00:39.226Z,2.90
2023-03-26T06:05:42.811Z,3.20
2023-03-26T06:10:45.097Z,2.50
2023-03-26T06:15:47.444Z,3.40
2023-03-26T06:20:49.462Z,2.00
2023-03-26T06:25:51.630Z,1.90
2023-03-26T06:30:54.041Z,2.90
2023-03-26T06:35:58.016Z,3.00
2023-03-26T06:41:05.937Z,2.30
2023-03-26T06:46:08.531Z,2.30
2023-03-26T06:51:10.716Z,1.70
2023-03-26T06:56:13.243Z,2.20
2023-03-26T07:01:15.429Z,2.30
2023-03-26T07:06:17.619Z,1.70
2023-03-26T07:11:21.990Z,2.30
2023-03-26T07:16:24.156Z,2.20
2023-03-26T07:21:26.969Z,2.40
2023-03-26T07:26:38.098Z,2.90
2023-03-26T07:32:17.277Z,2.70
2023-03-26T07:37:35.178Z,3.00
2023-03-26T07:42:47.807Z,2.80
2023-03-26T07:47:54.124Z,2.20
2023-03-26T07:52:56.473Z,2.60
2023-03-26T07:58:26.832Z,1.80
2023-03-26T08:03:48.009Z,1.90
2023-03-26T08:09:03.439Z,2.20
2023-03-26T08:14:56.736Z,2.50
2023-03-26T08:20:30.855Z,3.10
2023-03-26T08:25:42.063Z,2.10
2023-03-26T08:30:44.600Z,2.20
2023-03-26T08:35:49.798Z,2.80
2023-03-26T08:41:11.326Z,2.80
2023-03-26T08:46:30.398Z,2.50
2023-03-26T08:52:06.669Z,2.90
2023-03-26T08:57:33.886Z,3.20
2023-03-26T09:03:00.241Z,2.70
2023-03-26T09:08:20.563Z,2.50
2023-03-26T09:13:31.778Z,2.00
2023-03-26T09:18:53.910Z,1.60
2023-03-26T09:24:14.029Z,2.00
2023-03-26T09:29:41.133Z,1.40
2023-03-26T09:34:55.697Z,1.20
2023-03-26T09:40:22.317Z,1.30
2023-03-26T09:45:45.690Z,1.10
2023-03-26T09:51:05.155Z,1.30
2023-03-26T09:56:49.339Z,1.30
2023-03-26T10:02:04.018Z,1.20
2023-03-26T10:07:41.824Z,1.50
2023-03-26T10:12:51.124Z,0.90
2023-03-26T10:18:27.804Z,0.80
2023-03-26T10:23:33.759Z,0.90
2023-03-26T10:28:44.971Z,0.80
2023-03-26T10:33:49.786Z,1.30
2023-03-26T10:39:00.776Z,1.20
2023-03-26T10:44:25.502Z,0.90
2023-03-26T10:49:58.402Z,1.20
2023-03-26T10:55:24.990Z,0.90
2023-03-26T11:00:29.660Z,0.90
2023-03-26T11:06:14.093Z,0.50
2023-03-26T11:11:35.751Z,0.60
2023-03-26T11:16:50.397Z,0.70
2023-03-26T11:22:00.984Z,0.60
2023-03-26T11:27:23.144Z,0.40
2023-03-26T11:32:39.390Z,1.30
2023-03-26T11:37:46.108Z,1.10
2023-03-26T11:42:53.914Z,0.80
2023-03-26T11:48:24.408Z,0.80
2023-03-26T11:53:32.109Z,0.60
2023-03-26T11:58:48.695Z,0.70
2023-03-26T12:04:13.131Z,0.90
2023-03-26T12:09:17.535Z,1.00
2023-03-26T12:14:27.228Z,2.10
2023-03-26T12:19:40.810Z,1.70
2023-03-26T12:24:43.198Z,0.90
2023-03-26T12:30:08.456Z,0.40
2023-03-26T12:35:18.298Z,0.30
2023-03-26T12:40:33.917Z,0.30
2023-03-26T12:45:42.146Z,0.40
2023-03-26T12:51:08.991Z,0.50
2023-03-26T12:56:36.611Z,0.60
2023-03-26T13:02:14.154Z,0.90
2023-03-26T13:07:57.482Z,2.60
2023-03-26T13:13:30.748Z,1.30
2023-03-26T13:18:54.319Z,0.30
2023-03-26T13:24:07.411Z,0.30
2023-03-26T13:29:25.349Z,0.30
2023-03-26T13:35:02.141Z,0.40
2023-03-26T13:40:09.939Z,0.60
2023-03-26T13:45:20.951Z,0.30
2023-03-26T13:50:33.592Z,0.40
2023-03-26T13:55:47.280Z,0.50
2023-03-26T14:00:58.344Z,1.00
2023-03-26T14:06:10.488Z,0.80
2023-03-26T14:11:58.005Z,0.70
2023-03-26T14:17:14.071Z,0.50
2023-03-26T14:22:27.618Z,0.50
2023-03-26T14:28:00.580Z,0.50
2023-03-26T14:33:49.377Z,0.50
2023-03-26T14:39:40.127Z,0.50
2023-03-26T14:45:07.051Z,0.50
2023-03-26T14:50:35.573Z,0.50
2023-03-26T14:56:12.804Z,0.50
2023-03-26T15:01:46.960Z,0.50
2023-03-26T15:07:13.728Z,0.70
2023-03-26T15:12:37.889Z,0.50
2023-03-26T15:18:01.658Z,0.20
2023-03-26T15:23:19.038Z,0.40
2023-03-26T15:28:52.823Z,0.60
2023-03-26T15:34:19.697Z,0.50
2023-03-26T15:40:07.055Z,0.40
2023-03-26T15:45:41.613Z,0.50
2023-03-26T15:51:07.481Z,0.70
2023-03-26T15:56:19.000Z,0.60
2023-03-26T16:01:33.453Z,1.20
2023-03-26T16:07:03.436Z,0.80
2023-03-26T16:12:11.981Z,1.60
2023-03-26T16:17:23.832Z,2.00
2023-03-26T16:22:52.924Z,1.40
2023-03-26T16:28:10.562Z,1.30
2023-03-26T16:33:21.324Z,1.50
2023-03-26T16:38:27.152Z,1.60
2023-03-26T16:43:36.854Z,2.90
2023-03-26T16:49:21.088Z,2.10
2023-03-26T16:54:46.004Z,2.20
2023-03-26T17:00:05.382Z,4.90
2023-03-26T17:05:20.753Z,17.50
2023-03-26T17:11:08.183Z,22.40
2023-03-26T17:16:40.569Z,17.90
2023-03-26T17:21:51.865Z,14.40
2023-03-26T17:27:16.074Z,10.90
2023-03-26T17:32:21.771Z,21.10
2023-03-26T17:37:25.687Z,10.00
2023-03-26T17:42:32.443Z,5.60
2023-03-26T17:47:41.437Z,6.10
2023-03-26T17:52:59.706Z,4.00
2023-03-26T17:58:16.983Z,4.90
2023-03-26T18:03:21.170Z,6.00
2023-03-26T18:08:51.293Z,12.00
2023-03-26T18:14:18.755Z,16.60
2023-03-26T18:19:26.975Z,13.80
2023-03-26T18:24:40.863Z,11.60
2023-03-26T18:29:57.559Z,9.50
2023-03-26T18:35:20.024Z,16.60
2023-03-26T18:40:26.574Z,11.10
2023-03-26T18:45:36.925Z,9.80
2023-03-26T18:50:41.816Z,9.60
2023-03-26T18:55:44.930Z,13.60
2023-03-26T19:00:49.906Z,14.90
2023-03-26T19:05:54.258Z,11.30
2023-03-26T19:10:57.717Z,4.30
2023-03-26T19:16:06.530Z,3.40
2023-03-26T19:21:09.528Z,2.00
2023-03-26T19:26:14.042Z,1.40
2023-03-26T19:31:19.147Z,1.30
2023-03-26T19:36:25.325Z,1.20
2023-03-26T19:41:40.845Z,1.80
2023-03-26T19:46:53.993Z,1.40
2023-03-26T19:52:08.356Z,1.20
2023-03-26T19:57:10.633Z,1.30
2023-03-26T20:02:14.870Z,1.50
2023-03-26T20:12:49.073Z,1.50
2023-03-26T20:17:54.727Z,2.00
2023-03-26T20:22:57.571Z,1.50
2023-03-26T20:28:00.564Z,1.70
2023-03-26T20:33:12.159Z,1.70
2023-03-26T20:38:17.056Z,2.50
2023-03-26T20:43:23.884Z,2.00
2023-03-26T20:48:26.298Z,1.90
2023-03-26T20:53:30.871Z,1.70
2023-03-26T20:58:33.172Z,1.70
2023-03-26T21:03:35.739Z,1.30
2023-03-26T21:08:38.772Z,1.40
2023-03-26T21:13:49.706Z,1.20
2023-03-26T21:18:52.406Z,1.30
2023-03-26T21:24:11.165Z,2.50
2023-03-26T21:29:14.650Z,3.60
2023-03-26T21:34:17.320Z,3.70
2023-03-26T21:39:19.762Z,3.90
2023-03-26T21:44:23.361Z,4.20
2023-03-26T21:49:25.899Z,4.10
2023-03-26T21:54:30.588Z,4.80
2023-03-26T21:59:52.755Z,2.40
2023-03-26T22:05:03.746Z,2.90
2023-03-26T22:10:06.140Z,2.40
2023-03-26T22:15:08.719Z,2.60
2023-03-26T22:20:14.536Z,3.30
2023-03-26T22:25:17.747Z,2.30
2023-03-26T22:30:20.449Z,2.40
2023-03-26T22:35:22.541Z,3.50
2023-03-26T22:40:25.362Z,3.60
2023-03-26T22:45:27.604Z,3.40
2023-03-26T22:50:29.587Z,3.90
2023-03-26T22:55:31.984Z,4.40
2023-03-26T23:00:34.403Z,4.50
2023-03-26T23:05:37.198Z,5.70
2023-03-26T23:10:42.418Z,5.70
2023-03-26T23:15:47.908Z,4.30
2023-03-26T23:20:52.408Z,4.20
2023-03-26T23:25:59.820Z,3.60
2023-03-26T23:31:04.956Z,3.90
2023-03-26T23:36:10.686Z,4.40
2023-03-26T23:41:16.940Z,3.70
2023-03-26T23:46:23.753Z,3.60
2023-03-26T23:51:25.773Z,3.80
2023-03-26T23:56:29.429Z,4.00
